Time;durP1;ratioP1;P1;durP2;ratioP2;P2;SDS_P1;SDS_P2;PMS_P1;PMS_P2;Temp;Humidity;BMP_temperature;BMP_pressure;BME280_temperature;BME280_humidity;BME280_pressure;Samples;Min_cycle;Max_cycle;Signal;HPM_P1;HPM_P2
2023/08/10 00:01:30;;;;;;;1.13;0.55;;;13.10;99.90;;;;;;6184509;23;20082;-84
2023/08/10 00:03:56;;;;;;;0.93;0.52;;;13.10;99.90;;;;;;6186395;23;20024;-84
2023/08/10 00:06:22;;;;;;;2.50;0.60;;;13.00;99.90;;;;;;6209496;23;20396;-84
2023/08/10 00:08:49;;;;;;;1.27;0.50;;;13.10;99.90;;;;;;6184162;23;20017;-84
2023/08/10 00:11:15;;;;;;;0.68;0.40;;;13.30;99.90;;;;;;6184337;23;20017;-84
2023/08/10 00:13:41;;;;;;;1.85;0.50;;;13.40;99.90;;;;;;6184863;23;20387;-85
2023/08/10 00:16:07;;;;;;;2.95;0.60;;;13.10;99.90;;;;;;6184141;23;20024;-84
2023/08/10 00:18:33;;;;;;;3.08;0.40;;;13.10;99.90;;;;;;6184370;23;20024;-84
2023/08/10 00:20:59;;;;;;;0.70;0.35;;;13.10;99.90;;;;;;6184225;23;20017;-84
2023/08/10 00:23:25;;;;;;;1.10;0.40;;;13.10;99.90;;;;;;6184319;23;20021;-85
2023/08/10 00:25:51;;;;;;;1.10;0.43;;;13.10;99.90;;;;;;6185988;23;20019;-84
2023/08/10 00:28:16;;;;;;;1.02;0.52;;;13.10;99.90;;;;;;6184304;23;20017;-84
2023/08/10 00:30:42;;;;;;;1.10;0.43;;;13.10;99.90;;;;;;6183943;23;20021;-84
2023/08/10 00:33:08;;;;;;;0.60;0.40;;;13.10;99.90;;;;;;6183967;23;20060;-84
2023/08/10 00:35:38;;;;;;;0.68;0.50;;;13.10;99.90;;;;;;6184252;23;20032;-84
2023/08/10 00:38:04;;;;;;;1.65;0.40;;;13.20;99.90;;;;;;6184163;23;20023;-85
2023/08/10 00:40:30;;;;;;;0.45;0.30;;;13.10;99.90;;;;;;6185882;23;20021;-85
2023/08/10 00:42:58;;;;;;;1.17;0.40;;;13.10;99.90;;;;;;6186021;23;20508;-84
2023/08/10 00:45:24;;;;;;;0.80;0.30;;;13.10;99.90;;;;;;6184064;23;20079;-84
2023/08/10 00:47:52;;;;;;;0.80;0.40;;;13.20;99.90;;;;;;6209358;23;20347;-85
2023/08/10 00:50:18;;;;;;;0.40;0.38;;;13.20;99.90;;;;;;6184355;23;20027;-84
2023/08/10 00:52:44;;;;;;;2.40;0.40;;;13.20;99.90;;;;;;6209713;23;20135;-85
2023/08/10 00:55:10;;;;;;;1.67;0.38;;;13.20;99.90;;;;;;6186074;23;20421;-84
2023/08/10 00:57:37;;;;;;;0.95;0.30;;;13.20;99.90;;;;;;6184098;23;20013;-84
2023/08/10 01:00:06;;;;;;;1.60;0.50;;;13.60;99.90;;;;;;6185487;23;20017;-84
2023/08/10 01:02:32;;;;;;;2.22;0.50;;;13.20;99.90;;;;;;6209505;23;20017;-84
2023/08/10 01:04:57;;;;;;;1.15;0.50;;;13.50;99.90;;;;;;6183925;23;20376;-84
2023/08/10 01:07:56;;;;;;;3.55;0.40;;;13.20;99.90;;;;;;6184012;23;20079;-84
2023/08/10 01:10:33;;;;;;;1.30;0.45;;;13.20;99.90;;;;;;6159470;23;20028;-85
2023/08/10 01:13:24;;;;;;;0.75;0.40;;;13.20;99.90;;;;;;6185888;23;20045;-85
2023/08/10 01:15:57;;;;;;;2.08;0.73;;;13.20;99.90;;;;;;6185867;23;20371;-85
2023/08/10 01:18:27;;;;;;;3.22;0.40;;;13.20;99.90;;;;;;6183930;23;20028;-85
2023/08/10 01:20:58;;;;;;;1.35;0.40;;;13.20;99.90;;;;;;6184446;23;20447;-84
2023/08/10 01:23:52;;;;;;;1.38;0.40;;;13.30;99.90;;;;;;6186045;23;20024;-84
2023/08/10 01:26:18;;;;;;;2.40;0.50;;;13.20;99.90;;;;;;6184602;23;20017;-85
2023/08/10 01:28:45;;;;;;;1.55;0.50;;;13.20;99.90;;;;;;6185629;23;20028;-85
2023/08/10 01:31:10;;;;;;;1.33;0.45;;;13.20;99.90;;;;;;6186292;23;20048;-84
2023/08/10 01:33:36;;;;;;;0.95;0.32;;;13.20;99.90;;;;;;6186610;23;20020;-85
2023/08/10 01:36:02;;;;;;;1.13;0.40;;;13.20;99.90;;;;;;6185726;23;20329;-85
2023/08/10 01:38:28;;;;;;;1.05;0.40;;;13.20;99.90;;;;;;6187858;23;20313;-85
2023/08/10 01:40:54;;;;;;;0.93;0.50;;;13.20;99.90;;;;;;6185850;23;20021;-85
2023/08/10 01:43:19;;;;;;;0.95;0.40;;;13.30;99.90;;;;;;6187707;23;20009;-85
2023/08/10 01:45:49;;;;;;;0.50;0.45;;;13.20;99.90;;;;;;6185643;23;20359;-85
2023/08/10 01:48:25;;;;;;;3.30;0.38;;;13.10;99.90;;;;;;6185763;23;20071;-85
2023/08/10 01:50:53;;;;;;;0.30;0.30;;;13.20;99.90;;;;;;6187477;23;20009;-85
2023/08/10 01:53:25;;;;;;;308.20;201.15;;;13.60;99.90;;;;;;6187493;23;20028;-85
2023/08/10 01:55:51;;;;;;;0.60;0.40;;;13.80;99.90;;;;;;6210519;23;20448;-85
2023/08/10 01:58:18;;;;;;;37.00;35.33;;;13.30;99.90;;;;;;6185430;23;20432;-85
2023/08/10 02:00:44;;;;;;;1.73;0.50;;;13.30;99.90;;;;;;6185571;23;20025;-85
2023/08/10 02:03:10;;;;;;;1.65;0.43;;;13.30;99.90;;;;;;6185655;23;20374;-85
2023/08/10 02:05:35;;;;;;;0.70;0.30;;;13.30;99.90;;;;;;6186918;23;20017;-85
2023/08/10 02:08:01;;;;;;;0.43;0.32;;;13.30;99.90;;;;;;6185531;23;20044;-85
2023/08/10 02:10:27;;;;;;;475.63;434.80;;;13.50;99.90;;;;;;6187477;23;20009;-84
2023/08/10 02:12:53;;;;;;;281.10;263.65;;;13.30;99.90;;;;;;6185497;23;20056;-84
2023/08/10 02:15:18;;;;;;;0.95;0.43;;;13.30;99.90;;;;;;6185614;23;20317;-85
2023/08/10 02:17:44;;;;;;;1.15;0.40;;;13.20;99.90;;;;;;6186011;23;20024;-84
2023/08/10 02:20:14;;;;;;;0.95;0.40;;;13.90;99.90;;;;;;6210851;23;20021;-85
2023/08/10 02:22:46;;;;;;;4.38;0.50;;;13.20;99.90;;;;;;6210863;23;20368;-85
2023/08/10 02:25:12;;;;;;;1.35;0.40;;;13.30;99.90;;;;;;6185332;23;20052;-84
2023/08/10 02:27:42;;;;;;;0.75;0.40;;;13.30;99.90;;;;;;6200992;23;20440;-85
2023/08/10 02:30:09;;;;;;;1.60;0.45;;;13.30;99.90;;;;;;6190756;23;20020;-84
2023/08/10 02:32:35;;;;;;;0.70;0.40;;;13.30;99.90;;;;;;6217154;23;20311;-85
2023/08/10 02:35:02;;;;;;;0.35;0.30;;;13.30;99.90;;;;;;6217275;23;20017;-84
2023/08/10 02:37:28;;;;;;;1.05;0.50;;;13.30;99.90;;;;;;6217247;23;20070;-85
2023/08/10 02:39:54;;;;;;;0.45;0.40;;;13.30;99.90;;;;;;6190380;23;20028;-85
2023/08/10 02:42:20;;;;;;;1.98;0.40;;;13.30;99.90;;;;;;6217218;23;20012;-85
2023/08/10 02:44:49;;;;;;;1.52;0.40;;;13.30;99.90;;;;;;6190065;23;20024;-85
2023/08/10 02:47:17;;;;;;;2.10;0.50;;;13.30;99.90;;;;;;6190534;23;20017;-85
2023/08/10 02:49:43;;;;;;;0.32;0.30;;;13.40;99.90;;;;;;6216232;23;20021;-85
2023/08/10 02:52:09;;;;;;;1.40;0.40;;;13.30;99.90;;;;;;6190106;23;20095;-86
2023/08/10 02:54:35;;;;;;;1.95;0.40;;;13.30;99.90;;;;;;6215023;23;20024;-85
2023/08/10 02:57:01;;;;;;;0.95;0.50;;;13.40;99.90;;;;;;6216458;23;20219;-84
2023/08/10 02:59:27;;;;;;;0.52;0.30;;;13.40;99.90;;;;;;6189772;23;20044;-85
2023/08/10 03:01:53;;;;;;;0.73;0.28;;;13.40;99.90;;;;;;6189678;23;20024;-84
2023/08/10 03:04:18;;;;;;;0.57;0.43;;;13.40;99.90;;;;;;6216841;23;20439;-85
2023/08/10 03:06:44;;;;;;;0.70;0.40;;;13.40;99.90;;;;;;6214965;23;20452;-85
2023/08/10 03:09:10;;;;;;;1.58;0.50;;;13.40;99.90;;;;;;6215104;23;20126;-85
2023/08/10 03:11:36;;;;;;;1.38;0.50;;;13.40;99.90;;;;;;6189815;23;20016;-85
2023/08/10 03:14:03;;;;;;;241.88;199.73;;;13.40;99.90;;;;;;6216913;23;20016;-85
2023/08/10 03:16:29;;;;;;;0.30;0.30;;;13.40;99.90;;;;;;6215089;23;20313;-86
2023/08/10 03:18:56;;;;;;;0.63;0.40;;;13.40;99.90;;;;;;6214991;23;20463;-85
2023/08/10 03:21:22;;;;;;;1.25;0.43;;;13.90;99.90;;;;;;6216742;23;20070;-85
2023/08/10 03:27:28;;;;;;;0.90;0.40;;;13.50;99.90;;;;;;6216168;23;20039;-86
2023/08/10 03:29:54;;;;;;;0.57;0.57;;;13.50;99.90;;;;;;6215282;23;20025;-84
2023/08/10 03:32:20;;;;;;;0.63;0.60;;;13.50;99.90;;;;;;6189634;23;20013;-85
2023/08/10 03:34:45;;;;;;;95.57;89.40;;;13.50;99.90;;;;;;6189652;23;20387;-84
2023/08/10 03:37:11;;;;;;;321.23;296.35;;;13.50;99.90;;;;;;6189653;23;20023;-85
2023/08/10 03:39:37;;;;;;;665.42;605.72;;;13.60;99.90;;;;;;6189421;23;20012;-85
2023/08/10 03:42:03;;;;;;;648.60;597.72;;;13.50;99.90;;;;;;6215075;23;20008;-85
2023/08/10 03:44:28;;;;;;;643.95;595.15;;;13.50;99.90;;;;;;6214240;23;20081;-86
2023/08/10 03:46:54;;;;;;;311.38;292.77;;;13.50;99.90;;;;;;6214913;23;20070;-85
2023/08/10 03:49:22;;;;;;;332.90;307.75;;;13.50;99.90;;;;;;6190072;23;20091;-87
2023/08/10 03:51:50;;;;;;;346.38;321.95;;;13.50;99.90;;;;;;6189530;23;20091;-85
2023/08/10 03:54:16;;;;;;;352.35;327.17;;;13.50;99.90;;;;;;6216212;23;20470;-84
2023/08/10 03:56:42;;;;;;;330.60;309.50;;;13.50;99.90;;;;;;6189570;23;20017;-85
2023/08/10 03:59:08;;;;;;;357.35;324.17;;;13.50;99.90;;;;;;6189286;23;20108;-85
2023/08/10 04:01:34;;;;;;;436.38;401.42;;;13.50;99.90;;;;;;6215818;23;20013;-85
2023/08/10 04:04:00;;;;;;;474.17;433.92;;;13.50;99.90;;;;;;6189508;23;20095;-85
2023/08/10 04:06:26;;;;;;;403.38;359.88;;;13.50;99.90;;;;;;6189439;23;20020;-85
2023/08/10 04:08:53;;;;;;;658.70;603.35;;;13.50;99.90;;;;;;6189154;23;20082;-84
2023/08/10 04:11:19;;;;;;;663.60;607.13;;;13.50;99.90;;;;;;6189405;23;20487;-86
2023/08/10 04:13:46;;;;;;;373.20;342.05;;;13.50;99.90;;;;;;6189747;23;20024;-84
2023/08/10 04:16:12;;;;;;;630.08;584.88;;;13.50;99.90;;;;;;6189353;23;20023;-86
2023/08/10 04:18:38;;;;;;;617.42;576.70;;;13.50;99.90;;;;;;6216255;23;20087;-85
2023/08/10 04:21:04;;;;;;;624.53;581.72;;;13.70;99.90;;;;;;6189280;23;20020;-85
2023/08/10 04:23:30;;;;;;;343.77;321.95;;;13.50;99.90;;;;;;6216151;23;20309;-85
2023/08/10 04:25:56;;;;;;;637.30;593.90;;;13.50;99.90;;;;;;6189004;23;20463;-85
2023/08/10 04:28:23;;;;;;;338.00;317.48;;;13.60;99.90;;;;;;6189120;23;20021;-85
2023/08/10 04:30:49;;;;;;;318.58;299.67;;;13.50;99.90;;;;;;6215774;23;20017;-85
2023/08/10 04:33:14;;;;;;;627.53;586.13;;;13.50;99.90;;;;;;6189345;23;20023;-85
2023/08/10 04:35:40;;;;;;;479.20;387.77;;;13.50;99.90;;;;;;6189065;23;20027;-85
2023/08/10 04:38:06;;;;;;;720.05;631.10;;;13.80;99.90;;;;;;6189145;23;20021;-84
2023/08/10 04:40:32;;;;;;;707.72;638.80;;;13.50;99.90;;;;;;6215542;23;20027;-85
2023/08/10 04:42:59;;;;;;;434.70;385.58;;;13.60;99.90;;;;;;6215851;23;20019;-85
2023/08/10 04:45:25;;;;;;;690.40;632.30;;;13.60;99.90;;;;;;6215816;23;20511;-85
2023/08/10 04:47:50;;;;;;;697.97;636.95;;;13.70;99.90;;;;;;6189674;23;20020;-85
2023/08/10 04:50:17;;;;;;;685.45;628.58;;;13.60;99.90;;;;;;6189102;23;20074;-85
2023/08/10 04:52:43;;;;;;;426.25;380.50;;;13.60;99.90;;;;;;6189018;23;20063;-86
2023/08/10 04:55:10;;;;;;;422.27;377.77;;;13.70;99.90;;;;;;6188685;23;20036;-85
2023/08/10 04:57:37;;;;;;;425.95;382.35;;;13.80;99.90;;;;;;6189052;23;20013;-85
2023/08/10 05:00:09;;;;;;;676.10;622.63;;;13.70;99.90;;;;;;6188911;23;20025;-85
2023/08/10 05:02:35;;;;;;;427.63;382.27;;;13.70;99.90;;;;;;6189253;23;20023;-85
2023/08/10 05:05:02;;;;;;;682.28;626.75;;;13.90;99.90;;;;;;6188897;23;20055;-85
2023/08/10 05:07:28;;;;;;;693.97;637.13;;;13.80;99.90;;;;;;6215888;23;20017;-85
2023/08/10 05:09:54;;;;;;;691.15;634.55;;;13.80;99.90;;;;;;6188839;23;20017;-85
2023/08/10 05:12:19;;;;;;;414.35;375.35;;;13.80;99.90;;;;;;6188850;23;20016;-85
2023/08/10 05:14:45;;;;;;;399.90;363.35;;;13.80;99.90;;;;;;6189057;23;20099;-86
2023/08/10 05:17:11;;;;;;;419.08;378.10;;;14.40;99.90;;;;;;6214488;23;20455;-85
2023/08/10 05:19:36;;;;;;;420.95;378.13;;;13.90;99.90;;;;;;6188870;23;20127;-85
2023/08/10 05:22:02;;;;;;;425.05;382.75;;;14.00;99.90;;;;;;6215846;23;20020;-85
2023/08/10 05:24:28;;;;;;;688.92;632.53;;;14.00;99.90;;;;;;6215710;23;20043;-86
2023/08/10 05:26:54;;;;;;;406.58;369.08;;;13.80;99.90;;;;;;6188492;23;20399;-85
2023/08/10 05:29:20;;;;;;;687.80;633.95;;;14.10;99.90;;;;;;6215911;23;20021;-85
2023/08/10 05:31:46;;;;;;;693.33;638.92;;;14.20;99.90;;;;;;6189365;23;20020;-85
2023/08/10 05:34:12;;;;;;;407.35;371.02;;;14.20;99.90;;;;;;6188902;23;20027;-85
2023/08/10 05:36:37;;;;;;;695.63;641.00;;;14.30;99.90;;;;;;6216122;23;20371;-85
2023/08/10 05:39:03;;;;;;;695.20;641.35;;;14.30;99.90;;;;;;6188532;23;20075;-85
2023/08/10 05:41:29;;;;;;;408.73;374.60;;;14.40;99.90;;;;;;6189118;23;20016;-85
2023/08/10 05:43:54;;;;;;;692.20;639.58;;;15.10;99.90;;;;;;6189094;23;20099;-85
2023/08/10 05:46:20;;;;;;;409.85;374.63;;;14.70;99.90;;;;;;6189342;23;20020;-85
2023/08/10 05:48:46;;;;;;;413.55;378.00;;;14.50;99.90;;;;;;6188822;23;20499;-85
2023/08/10 05:51:12;;;;;;;408.55;374.30;;;14.60;99.90;;;;;;6215661;23;20078;-85
2023/08/10 05:53:37;;;;;;;686.63;636.35;;;14.60;99.90;;;;;;6188564;23;20039;-85
2023/08/10 05:56:03;;;;;;;409.45;374.20;;;14.70;99.90;;;;;;6215414;23;20071;-86
2023/08/10 05:58:29;;;;;;;418.58;380.92;;;14.70;99.90;;;;;;6215622;23;20344;-86
2023/08/10 06:00:56;;;;;;;677.15;628.72;;;14.70;99.90;;;;;;6216004;23;20017;-86
2023/08/10 06:03:24;;;;;;;677.22;628.88;;;14.70;99.90;;;;;;6214558;23;20017;-84
2023/08/10 06:05:50;;;;;;;398.33;367.83;;;14.70;99.90;;;;;;6215355;23;20017;-86
2023/08/10 06:08:18;;;;;;;694.65;641.92;;;14.70;99.90;;;;;;6189394;23;20016;-86
2023/08/10 06:10:44;;;;;;;403.73;371.10;;;14.70;99.90;;;;;;6190820;23;20017;-85
2023/08/10 06:13:10;;;;;;;696.47;644.28;;;14.70;99.90;;;;;;6190148;23;20075;-86
2023/08/10 06:15:36;;;;;;;712.88;656.95;;;15.00;99.90;;;;;;6190480;23;20362;-85
2023/08/10 06:18:02;;;;;;;438.05;396.13;;;14.70;99.90;;;;;;6190881;23;20074;-86
2023/08/10 06:20:28;;;;;;;425.33;385.85;;;14.70;99.90;;;;;;6191054;23;20017;-86
2023/08/10 06:22:54;;;;;;;708.97;652.92;;;15.10;99.90;;;;;;6190411;23;20017;-87
2023/08/10 06:25:20;;;;;;;702.40;650.25;;;14.90;99.90;;;;;;6190262;23;20017;-86
2023/08/10 06:27:47;;;;;;;719.38;661.72;;;15.00;99.90;;;;;;6216879;23;20398;-88
2023/08/10 06:30:14;;;;;;;430.38;390.45;;;15.00;99.90;;;;;;6190069;23;20023;-86
2023/08/10 06:32:39;;;;;;;433.38;394.48;;;15.10;99.90;;;;;;6189834;23;20021;-86
2023/08/10 06:35:08;;;;;;;2.10;0.50;;;15.20;99.90;;;;;;6217140;23;20032;-87
2023/08/10 06:37:33;;;;;;;2.63;0.50;;;15.30;99.90;;;;;;6215890;23;20013;-86
2023/08/10 06:39:59;;;;;;;7.10;6.57;;;16.20;99.90;;;;;;6190319;23;20043;-85
2023/08/10 06:42:25;;;;;;;1.63;0.50;;;15.50;99.90;;;;;;6190224;23;20039;-87
2023/08/10 06:44:51;;;;;;;1.02;0.40;;;15.70;99.90;;;;;;6190236;23;20027;-87
2023/08/10 06:47:17;;;;;;;1.73;0.40;;;15.90;99.90;;;;;;6216897;23;20071;-87
2023/08/10 06:49:42;;;;;;;1.52;0.38;;;16.00;99.90;;;;;;6216377;23;20020;-86
2023/08/10 06:52:09;;;;;;;0.80;0.50;;;16.20;99.90;;;;;;6215671;23;20009;-85
2023/08/10 06:54:35;;;;;;;2.50;0.50;;;16.40;99.90;;;;;;6190916;23;20024;-90
2023/08/10 06:57:01;;;;;;;0.75;0.30;;;16.50;99.90;;;;;;6216490;23;20019;-86
2023/08/10 06:59:27;;;;;;;1.27;0.40;;;16.60;99.90;;;;;;6215402;23;20020;-87
2023/08/10 07:01:52;;;;;;;1.33;0.30;;;16.60;99.90;;;;;;6189972;23;20020;-87
2023/08/10 07:04:18;;;;;;;0.70;0.40;;;16.90;99.90;;;;;;6215574;23;20024;-86
2023/08/10 07:06:44;;;;;;;1.50;0.25;;;17.00;99.90;;;;;;6216898;23;20091;-87
2023/08/10 07:09:10;;;;;;;0.90;0.40;;;17.30;99.90;;;;;;6215373;23;20048;-87
2023/08/10 07:11:35;;;;;;;0.55;0.30;;;17.40;99.90;;;;;;6216565;23;20451;-87
2023/08/10 07:14:02;;;;;;;1.85;0.40;;;17.60;99.90;;;;;;6216967;23;20009;-87
2023/08/10 07:16:28;;;;;;;1.48;0.30;;;17.70;99.90;;;;;;6190409;23;20083;-87
2023/08/10 07:18:54;;;;;;;3.58;0.40;;;17.90;99.90;;;;;;6216722;23;20017;-87
2023/08/10 07:21:20;;;;;;;2.50;0.30;;;18.00;99.90;;;;;;6189799;23;20451;-86
2023/08/10 07:23:46;;;;;;;0.93;0.40;;;18.10;99.90;;;;;;6216525;23;20404;-86
2023/08/10 07:26:12;;;;;;;1.52;0.30;;;18.30;99.90;;;;;;6189806;23;20451;-87
2023/08/10 07:28:38;;;;;;;3.40;0.40;;;18.30;99.90;;;;;;6189607;23;20041;-89
2023/08/10 07:31:04;;;;;;;0.80;0.40;;;18.50;99.90;;;;;;6190775;23;20344;-87
2023/08/10 07:33:30;;;;;;;1.90;0.30;;;18.60;99.90;;;;;;6189934;23;20021;-88
2023/08/10 07:35:55;;;;;;;1.17;0.35;;;18.70;99.90;;;;;;6216679;23;20017;-86
2023/08/10 07:38:21;;;;;;;1.38;0.40;;;18.80;99.90;;;;;;6216426;23;20017;-87
2023/08/10 07:40:47;;;;;;;2.90;0.40;;;18.90;99.90;;;;;;6189933;23;20058;-86
2023/08/10 07:43:13;;;;;;;0.38;0.35;;;19.00;99.90;;;;;;6216735;23;20012;-86
2023/08/10 07:45:39;;;;;;;3.95;0.40;;;19.20;99.90;;;;;;6189619;23;20470;-86
2023/08/10 07:48:05;;;;;;;0.93;0.32;;;19.40;99.90;;;;;;6190153;23;20075;-86
2023/08/10 07:50:31;;;;;;;1.58;0.40;;;19.50;99.90;;;;;;6190085;23;20036;-86
2023/08/10 07:52:57;;;;;;;3.47;0.40;;;19.60;99.90;;;;;;6216481;23;20012;-86
2023/08/10 07:55:23;;;;;;;4.15;0.30;;;19.70;99.90;;;;;;6214655;23;20111;-86
2023/08/10 07:57:50;;;;;;;2.72;0.40;;;19.90;99.90;;;;;;6189581;23;20048;-86
2023/08/10 08:00:16;;;;;;;1.95;0.40;;;20.00;99.90;;;;;;6216387;23;20074;-86
2023/08/10 08:02:42;;;;;;;2.90;0.30;;;20.20;99.90;;;;;;6189261;23;20440;-86
2023/08/10 08:05:08;;;;;;;2.25;0.32;;;20.40;99.90;;;;;;6216618;23;20020;-86
2023/08/10 08:07:33;;;;;;;4.78;0.73;;;20.60;99.90;;;;;;6216031;23;20519;-87
2023/08/10 08:10:00;;;;;;;1.55;0.50;;;20.70;99.90;;;;;;6214862;23;20021;-87
2023/08/10 08:12:27;;;;;;;0.68;0.20;;;20.60;99.90;;;;;;6189649;23;20021;-86
2023/08/10 08:14:55;;;;;;;2.20;0.30;;;20.80;99.90;;;;;;6214416;23;20482;-87
2023/08/10 08:17:22;;;;;;;1.63;0.40;;;20.80;99.90;;;;;;6189863;23;20020;-86
2023/08/10 08:19:48;;;;;;;0.90;0.32;;;21.00;99.90;;;;;;6214111;23;20020;-86
2023/08/10 08:22:14;;;;;;;2.13;0.28;;;21.10;99.90;;;;;;6189232;23;20052;-86
2023/08/10 08:24:41;;;;;;;4.05;0.43;;;21.20;99.90;;;;;;6189447;23;20032;-86
2023/08/10 08:27:06;;;;;;;3.00;0.52;;;21.20;99.90;;;;;;6189086;23;20019;-86
2023/08/10 08:29:34;;;;;;;1.13;0.30;;;21.30;99.90;;;;;;6189568;23;20408;-86
2023/08/10 08:32:00;;;;;;;2.35;0.30;;;21.30;99.90;;;;;;6216239;23;20005;-86
2023/08/10 08:34:26;;;;;;;2.20;0.30;;;21.40;99.90;;;;;;6189885;23;20459;-87
2023/08/10 08:36:51;;;;;;;1.25;0.30;;;21.30;99.90;;;;;;6189352;23;20092;-86
2023/08/10 08:39:17;;;;;;;2.00;0.43;;;21.40;99.90;;;;;;6189390;23;20063;-86
2023/08/10 08:41:45;;;;;;;2.08;0.30;;;21.40;99.90;;;;;;6189447;23;20028;-86
2023/08/10 08:44:13;;;;;;;1.77;0.28;;;21.40;99.90;;;;;;6189416;23;20394;-87
2023/08/10 08:46:42;;;;;;;2.42;0.30;;;21.30;99.90;;;;;;6189684;23;20021;-86
2023/08/10 08:49:08;;;;;;;2.47;0.38;;;21.30;99.90;;;;;;6189307;23;20055;-87
2023/08/10 08:51:36;;;;;;;2.03;0.47;;;21.30;99.90;;;;;;6189369;23;20020;-86
2023/08/10 08:54:02;;;;;;;1.65;0.30;;;21.30;99.90;;;;;;6189086;23;20032;-86
2023/08/10 08:56:28;;;;;;;1.63;0.30;;;21.30;99.90;;;;;;6164322;23;20021;-86
2023/08/10 08:58:54;;;;;;;2.88;0.40;;;21.30;99.90;;;;;;6216170;23;20466;-87
2023/08/10 09:01:21;;;;;;;1.65;0.20;;;21.30;99.90;;;;;;6189416;23;20025;-86
2023/08/10 09:03:48;;;;;;;2.33;0.30;;;21.30;99.90;;;;;;6189013;23;20035;-87
2023/08/10 09:06:14;;;;;;;2.83;0.20;;;21.10;99.90;;;;;;6189133;23;20448;-87
2023/08/10 09:08:41;;;;;;;2.35;0.30;;;21.20;99.90;;;;;;6214160;23;20017;-87
2023/08/10 09:11:07;;;;;;;4.40;0.40;;;21.10;99.90;;;;;;6189498;23;20027;-86
2023/08/10 09:13:33;;;;;;;2.55;0.30;;;21.10;99.90;;;;;;6214082;23;20406;-86
2023/08/10 09:16:17;;;;;;;0.30;0.10;;;21.20;99.90;;;;;;6189570;23;20056;-87
2023/08/10 09:18:44;;;;;;;1.17;0.20;;;21.20;99.90;;;;;;6215672;23;20466;-87
2023/08/10 09:21:18;;;;;;;1.20;0.20;;;21.10;99.90;;;;;;6214424;23;20028;-86
2023/08/10 09:23:48;;;;;;;1.67;0.77;;;21.20;99.90;;;;;;6189136;23;20056;-87
2023/08/10 09:26:17;;;;;;;3.22;0.25;;;21.20;99.90;;;;;;6215762;23;20009;-87
2023/08/10 09:28:43;;;;;;;1.23;0.20;;;21.20;99.90;;;;;;6189143;23;20055;-87
2023/08/10 09:31:10;;;;;;;3.47;0.30;;;21.20;99.90;;;;;;6189207;23;20027;-87
2023/08/10 09:33:37;;;;;;;0.68;0.22;;;21.30;99.90;;;;;;6188869;23;20383;-88
2023/08/10 09:36:07;;;;;;;1.63;0.30;;;21.30;99.90;;;;;;6189175;23;20016;-86
2023/08/10 09:38:34;;;;;;;1.27;0.20;;;21.40;99.90;;;;;;6188653;23;20021;-87
2023/08/10 09:41:07;;;;;;;2.67;0.30;;;21.50;99.90;;;;;;6188951;23;20021;-87
2023/08/10 09:43:33;;;;;;;1.30;0.30;;;21.30;99.90;;;;;;6191080;23;20017;-88
2023/08/10 09:46:04;;;;;;;3.58;0.30;;;21.30;99.90;;;;;;6218610;23;20024;-87
2023/08/10 09:48:35;;;;;;;1.38;0.30;;;21.40;99.90;;;;;;6167448;23;20019;-86
2023/08/10 09:51:03;;;;;;;1.35;0.20;;;21.50;99.90;;;;;;6191641;23;20016;-88
2023/08/10 09:53:29;;;;;;;2.33;0.40;;;21.60;99.90;;;;;;6217454;23;20017;-86
2023/08/10 09:55:56;;;;;;;3.42;0.25;;;21.50;99.90;;;;;;6190876;23;20091;-91
2023/08/10 09:58:22;;;;;;;2.80;0.30;;;21.60;99.90;;;;;;6190881;23;20095;-88
2023/08/10 10:00:49;;;;;;;1.35;0.28;;;21.50;99.90;;;;;;6190596;23;20095;-89
2023/08/10 10:03:19;;;;;;;1.83;0.30;;;21.70;99.90;;;;;;6190540;23;20091;-88
2023/08/10 10:05:48;;;;;;;1.85;0.10;;;21.70;99.90;;;;;;6190766;23;20020;-87
2023/08/10 10:08:14;;;;;;;1.48;0.28;;;21.70;99.90;;;;;;6190626;23;20017;-88
2023/08/10 10:10:42;;;;;;;2.45;0.35;;;21.80;99.90;;;;;;6190679;23;20028;-89
2023/08/10 10:13:12;;;;;;;0.80;0.20;;;21.70;99.90;;;;;;6215444;23;20017;-88
2023/08/10 10:15:39;;;;;;;1.55;0.30;;;21.70;99.90;;;;;;6217907;23;20013;-87
2023/08/10 10:18:06;;;;;;;0.90;0.20;;;21.70;99.90;;;;;;6190993;23;20012;-86
2023/08/10 10:20:34;;;;;;;0.90;0.20;;;21.70;99.90;;;;;;6215398;23;20046;-87
2023/08/10 10:23:39;;;;;;;0.82;0.30;;;21.70;99.90;;;;;;6190420;23;20066;-92
2023/08/10 10:26:46;;;;;;;0.45;0.20;;;21.80;99.90;;;;;;6216879;22;20431;-93
2023/08/10 10:29:51;;;;;;;;;;;;;;;;;;;;;
2023/08/10 10:51:19;;;;;;;2.72;0.30;;;22.10;99.90;;;;;;6268609;22;20431;-89
2023/08/10 10:53:47;;;;;;;1.52;0.20;;;22.00;99.90;;;;;;6220452;22;20451;-89
2023/08/10 10:56:22;;;;;;;1.70;0.30;;;22.10;99.90;;;;;;6250793;22;20477;-90
2023/08/10 10:58:48;;;;;;;3.28;0.35;;;22.20;99.90;;;;;;6250970;22;20016;-88
2023/08/10 11:01:35;;;;;;;0.77;0.10;;;22.40;99.90;;;;;;6225871;22;20342;-89
2023/08/10 11:04:06;;;;;;;1.27;0.10;;;22.40;99.90;;;;;;6251043;22;20091;-89
2023/08/10 11:06:31;;;;;;;0.85;0.20;;;22.60;99.90;;;;;;6251143;22;20124;-88
2023/08/10 11:09:13;;;;;;;0.70;0.20;;;22.60;99.90;;;;;;6251010;22;20442;-88
2023/08/10 11:11:54;;;;;;;1.35;0.20;;;22.80;99.90;;;;;;6228255;22;20114;-91
2023/08/10 11:14:31;;;;;;;1.48;0.30;;;22.70;99.90;;;;;;6251220;22;20058;-89
2023/08/10 11:17:37;;;;;;;0.60;0.20;;;22.60;99.90;;;;;;6250635;22;20016;-90
2023/08/10 11:20:54;;;;;;;1.13;0.20;;;22.70;99.90;;;;;;6154821;23;20028;-93
2023/08/10 11:24:01;;;;;;;0.88;0.10;;;22.90;99.90;;;;;;6071865;23;20014;-91
2023/08/10 16:42:43;;;;;;;1.85;0.50;;;20.00;99.90;;;;;;6249722;22;20051;-86
2023/08/10 16:45:09;;;;;;;0.68;0.40;;;20.00;99.90;;;;;;6248772;22;20020;-86
2023/08/10 16:47:35;;;;;;;1.67;0.60;;;20.00;99.90;;;;;;6249057;22;20023;-86
2023/08/10 16:50:01;;;;;;;1.05;0.40;;;20.00;99.90;;;;;;6254676;22;20098;-83
2023/08/10 16:52:27;;;;;;;2.08;0.80;;;19.90;99.90;;;;;;6224731;22;20019;-87
2023/08/10 16:54:53;;;;;;;1.52;0.98;;;19.90;99.90;;;;;;6251588;22;20015;-85
2023/08/10 16:57:19;;;;;;;1.33;0.52;;;19.90;99.90;;;;;;6248853;22;20034;-85
2023/08/10 16:59:44;;;;;;;1.85;0.50;;;19.80;99.90;;;;;;6249352;22;20043;-86
2023/08/10 17:02:10;;;;;;;1.77;0.98;;;19.80;99.90;;;;;;6248812;22;20434;-86
2023/08/10 17:04:36;;;;;;;0.82;0.40;;;19.80;99.90;;;;;;6275985;22;20026;-84
2023/08/10 17:07:01;;;;;;;2.20;0.60;;;19.80;99.90;;;;;;6276628;22;20011;-84
2023/08/10 17:09:27;;;;;;;1.70;0.80;;;19.80;99.90;;;;;;6248838;22;20019;-85
2023/08/10 17:11:53;;;;;;;4.53;0.73;;;19.80;99.90;;;;;;6248968;22;20051;-85
2023/08/10 17:14:20;;;;;;;1.25;0.60;;;19.80;99.90;;;;;;6246241;23;20020;-85
2023/08/10 17:16:45;;;;;;;1.88;1.17;;;19.70;99.90;;;;;;6245672;23;20032;-85
2023/08/10 17:19:11;;;;;;;1.23;0.40;;;19.80;99.90;;;;;;6218774;23;20327;-85
2023/08/10 17:21:37;;;;;;;4.78;1.40;;;19.70;99.90;;;;;;6193498;23;20027;-85
2023/08/10 17:24:03;;;;;;;1.00;0.50;;;19.70;99.90;;;;;;6218256;23;20095;-85
2023/08/10 17:26:29;;;;;;;0.93;0.50;;;19.70;99.90;;;;;;6245217;23;20016;-84
2023/08/10 17:28:55;;;;;;;2.78;0.60;;;19.70;99.90;;;;;;6218571;23;20078;-85
2023/08/10 17:31:21;;;;;;;1.95;0.50;;;19.70;99.90;;;;;;6218578;23;20023;-86
2023/08/10 17:33:46;;;;;;;1.13;0.70;;;19.70;99.90;;;;;;6218365;23;20020;-84
2023/08/10 17:36:12;;;;;;;3.22;0.77;;;19.70;99.90;;;;;;6245661;23;20083;-85
2023/08/10 17:38:39;;;;;;;1.58;0.60;;;19.70;99.90;;;;;;6218397;23;20096;-84
2023/08/10 17:41:06;;;;;;;0.70;0.50;;;19.60;99.90;;;;;;6218136;23;20024;-85
2023/08/10 17:43:32;;;;;;;2.83;0.55;;;19.60;99.90;;;;;;6217948;23;20438;-86
2023/08/10 17:46:51;;;;;;;1.13;0.47;;;19.60;99.90;;;;;;6218668;23;20098;-91
2023/08/10 17:49:22;;;;;;;1.00;0.50;;;19.60;99.90;;;;;;6216403;23;20055;-89
2023/08/10 17:51:50;;;;;;;2.30;0.52;;;19.60;99.90;;;;;;6218558;23;20009;-88
2023/08/10 17:54:16;;;;;;;1.63;0.63;;;19.50;99.90;;;;;;6218221;23;20194;-90
2023/08/10 17:56:42;;;;;;;2.05;0.73;;;19.50;99.90;;;;;;6192523;23;20012;-86
2023/08/10 17:59:08;;;;;;;2.63;0.70;;;19.50;99.90;;;;;;6244753;23;20401;-87
2023/08/10 18:01:35;;;;;;;3.33;0.68;;;19.50;99.90;;;;;;6245066;23;20095;-85
2023/08/10 18:04:01;;;;;;;2.00;0.60;;;19.40;99.90;;;;;;6219330;23;20019;-85
2023/08/10 18:06:27;;;;;;;1.42;0.95;;;19.40;99.90;;;;;;6220222;23;20024;-85
2023/08/10 18:08:52;;;;;;;3.13;0.80;;;19.40;99.90;;;;;;6219826;23;20012;-85
2023/08/10 18:11:19;;;;;;;2.80;0.70;;;19.30;99.90;;;;;;6246479;23;20522;-86
2023/08/10 18:13:45;;;;;;;2.47;0.70;;;19.30;99.90;;;;;;6219828;23;20027;-85
2023/08/10 18:16:12;;;;;;;5.25;0.70;;;19.30;99.90;;;;;;6246082;23;20384;-85
2023/08/10 18:18:38;;;;;;;3.83;0.82;;;19.30;99.90;;;;;;6194811;23;20024;-86
2023/08/10 18:21:05;;;;;;;0.73;0.50;;;19.20;99.90;;;;;;6220098;23;20122;-86